Mary Alice II — WDE3827 — position and weather

sailwx.info

Track history (hours):
 
Tides and Currents Weather Stations Pressure Air Temp Water Temp Dewpoint Dewpoint Depression Visibility Wind Speed Wind Dir Waves Ship Positions

Mary Alice II

Owner: Lakeshore Drive Investment, Rollins, MT. More information available from US FCC via Universal Licensing System and Coast Guard Vessel Documentation Center.

Last reported at 2015-Jul-27 20:08 UTC. Time now 2015-Aug-03 10:38 UTC.
Position N 58°18' W 134°24'.

Length 40 m; draft 2.2 m.

Type: Pleasure craft. MMSI: 367344710.

Date/timePositionNaut miles runAvg speedWind from/ knotsBaromVisibWave heightAir tempDewpointWater temp
2015-Jul-27 20:08N 58°18' W 134°24'0 0.1
2015-Jul-27 19:34N 58°18' W 134°24'0 0.0
2015-Jul-27 18:33N 58°18' W 134°24'0 0.0
2015-Jul-27 17:34N 58°18' W 134°24'0 0.0
2015-Jul-27 16:33N 58°18' W 134°24'0 0.0
2015-Jul-27 15:34N 58°18' W 134°24'0 0.0
2015-Jul-27 14:33N 58°18' W 134°24'0 0.0
2015-Jul-27 13:34N 58°18' W 134°24'0 0.0
2015-Jul-27 12:34N 58°18' W 134°24'0 0.0
2015-Jul-27 11:33N 58°18' W 134°24'0 0.0
2015-Jul-27 10:33N 58°18' W 134°24'0 0.0
2015-Jul-27 09:34N 58°18' W 134°24'0 0.0
2015-Jul-27 08:33N 58°18' W 134°24'0 0.0
2015-Jul-27 07:33N 58°18' W 134°24'0 0.0
2015-Jul-27 06:34N 58°18' W 134°24'0 0.0
2015-Jul-27 05:33N 58°18' W 134°24'0 0.0
2015-Jul-27 04:34N 58°18' W 134°24'0 0.0
2015-Jul-27 03:34N 58°18' W 134°24'0 0.0
2015-Jul-27 02:34N 58°18' W 134°24'0 0.0
2015-Jul-27 01:34N 58°18' W 134°24'0 0.0
2015-Jul-27 00:34N 58°18' W 134°24'0 0.0
2015-Jul-26 23:34N 58°18' W 134°24'0 0.0
2015-Jul-26 22:34N 58°18' W 134°24'0 0.0
2015-Jul-26 21:34N 58°18' W 134°24'0 0.0
2015-Jul-26 20:34N 58°18' W 134°24'0 0.0
2015-Jul-26 19:34N 58°18' W 134°24'0 0.0
2015-Jul-26 18:33N 58°18' W 134°24'0 0.0
2015-Jul-26 17:34N 58°18' W 134°24'0 0.0
2015-Jul-26 16:33N 58°18' W 134°24'0 0.0
2015-Jul-26 15:33N 58°18' W 134°24'0 0.0
2015-Jul-26 14:33N 58°18' W 134°24'0 0.0
2015-Jul-26 13:34N 58°18' W 134°24'0 0.0
2015-Jul-26 12:33N 58°18' W 134°24'0 0.0
2015-Jul-26 11:34N 58°18' W 134°24'0 0.0
2015-Jul-26 10:33N 58°18' W 134°24'0 0.0
2015-Jul-26 09:33N 58°18' W 134°24'0 0.0
2015-Jul-26 08:34N 58°18' W 134°24'0 0.0
2015-Jul-26 07:33N 58°18' W 134°24'0 0.0
2015-Jul-26 06:33N 58°18' W 134°24'0 0.0
2015-Jul-26 05:34N 58°18' W 134°24'0 0.0
2015-Jul-26 04:34N 58°18' W 134°24'0 0.0
2015-Jul-26 03:34N 58°18' W 134°24'0 0.0
2015-Jul-26 02:33N 58°18' W 134°24'0 0.0
2015-Jul-26 01:34N 58°18' W 134°24'0 0.0
2015-Jul-26 00:34N 58°18' W 134°24'0 0.2
2015-Jul-25 23:31N 58°17' W 134°24'0 0.0
2015-Jul-25 22:31N 58°17' W 134°24'0 0.0
2015-Jul-25 21:31N 58°17' W 134°24'0 0.2
2015-Jul-25 20:31N 58°18' W 134°24'0 0.0
2015-Jul-25 19:31N 58°18' W 134°24'0 0.0
2015-Jul-25 18:31N 58°18' W 134°24'0 0.0
2015-Jul-25 17:31N 58°18' W 134°24'2 2.3
2015-Jul-25 16:33N 58°16' W 134°21'1212.4
2015-Jul-25 15:33N 58°07' W 134°05'4 3.6
2015-Jul-25 14:31N 58°04' W 134°01'0 0.0
2015-Jul-25 13:31N 58°04' W 134°01'0 0.0
2015-Jul-25 12:31N 58°04' W 134°01'0 0.0
2015-Jul-25 11:31N 58°04' W 134°01'0 0.0
2015-Jul-25 10:31N 58°04' W 134°01'0 0.0
2015-Jul-25 09:31N 58°04' W 134°01'0 0.0
2015-Jul-25 08:31N 58°04' W 134°01'0 0.0
2015-Jul-25 07:31N 58°04' W 134°01'0 0.0
2015-Jul-25 06:31N 58°04' W 134°01'0 0.0
2015-Jul-25 05:31N 58°04' W 134°01'0 0.0
2015-Jul-25 04:31N 58°04' W 134°01'0 0.0
2015-Jul-25 03:31N 58°04' W 134°01'7 7.5
2015-Jul-25 02:33N 57°57' W 133°55'14 1.4
2015-Jul-24 16:29N 57°46' W 133°39'  
2015-Jul-18 22:11N 58°22' W 134°52'2213.3
2015-Jul-18 20:33N 58°12' W 134°15'7 7.3
2015-Jul-18 19:33N 58°18' W 134°25'0 0.0
2015-Jul-18 18:33N 58°18' W 134°25'0 0.0
2015-Jul-18 17:33N 58°18' W 134°25'0 0.0
2015-Jul-18 16:33N 58°18' W 134°25'1 0.5
2015-Jul-18 15:32N 58°18' W 134°24'0 0.0
2015-Jul-18 14:32N 58°18' W 134°24'0 0.0
2015-Jul-18 13:32N 58°18' W 134°24'0 0.0
2015-Jul-18 12:32N 58°18' W 134°24'0 0.0
2015-Jul-18 11:32N 58°18' W 134°24'0 0.0
2015-Jul-18 10:29N 58°18' W 134°24'0 0.0
2015-Jul-18 09:32N 58°18' W 134°24'0 0.0
2015-Jul-18 08:32N 58°18' W 134°24'0 0.0
2015-Jul-18 07:32N 58°18' W 134°24'0 0.0
2015-Jul-18 06:32N 58°18' W 134°24'0 0.0
2015-Jul-18 05:32N 58°18' W 134°24'0 0.0
2015-Jul-18 04:32N 58°18' W 134°24'0 0.0
2015-Jul-18 03:32N 58°18' W 134°24'0 0.0
2015-Jul-18 02:32N 58°18' W 134°24'0 0.0
2015-Jul-18 01:32N 58°18' W 134°24'0 0.0
2015-Jul-18 00:32N 58°18' W 134°24'0 0.0
2015-Jul-17 23:32N 58°18' W 134°24'0 0.0
2015-Jul-17 22:32N 58°18' W 134°24'0 0.0
2015-Jul-17 21:32N 58°18' W 134°24'0 0.0
2015-Jul-17 20:32N 58°18' W 134°24'  
Track history (hours):
 
Tides and Currents Weather Stations Pressure Air Temp Water Temp Dewpoint Dewpoint Depression Visibility Wind Speed Wind Dir Waves Ship Positions

Mary Alice II

Owner: Lakeshore Drive Investment, Rollins, MT. More information available from US FCC via Universal Licensing System and Coast Guard Vessel Documentation Center.

Last reported at 2015-Jul-27 20:08 UTC. Time now 2015-Aug-03 10:38 UTC.
Position N 58°18' W 134°24'.

Length 40 m; draft 2.2 m.

Type: Pleasure craft. MMSI: 367344710.

Date/timePositionNaut miles runAvg speedWind from/ knotsBaromVisibWave heightAir tempDewpointWater temp
2015-Jul-27 20:08N 58°18' W 134°24'0 0.1
2015-Jul-27 19:34N 58°18' W 134°24'0 0.0
2015-Jul-27 18:33N 58°18' W 134°24'0 0.0
2015-Jul-27 17:34N 58°18' W 134°24'0 0.0
2015-Jul-27 16:33N 58°18' W 134°24'0 0.0
2015-Jul-27 15:34N 58°18' W 134°24'0 0.0
2015-Jul-27 14:33N 58°18' W 134°24'0 0.0
2015-Jul-27 13:34N 58°18' W 134°24'0 0.0
2015-Jul-27 12:34N 58°18' W 134°24'0 0.0
2015-Jul-27 11:33N 58°18' W 134°24'0 0.0
2015-Jul-27 10:33N 58°18' W 134°24'0 0.0
2015-Jul-27 09:34N 58°18' W 134°24'0 0.0
2015-Jul-27 08:33N 58°18' W 134°24'0 0.0
2015-Jul-27 07:33N 58°18' W 134°24'0 0.0
2015-Jul-27 06:34N 58°18' W 134°24'0 0.0
2015-Jul-27 05:33N 58°18' W 134°24'0 0.0
2015-Jul-27 04:34N 58°18' W 134°24'0 0.0
2015-Jul-27 03:34N 58°18' W 134°24'0 0.0
2015-Jul-27 02:34N 58°18' W 134°24'0 0.0
2015-Jul-27 01:34N 58°18' W 134°24'0 0.0
2015-Jul-27 00:34N 58°18' W 134°24'0 0.0
2015-Jul-26 23:34N 58°18' W 134°24'0 0.0
2015-Jul-26 22:34N 58°18' W 134°24'0 0.0
2015-Jul-26 21:34N 58°18' W 134°24'0 0.0
2015-Jul-26 20:34N 58°18' W 134°24'0 0.0
2015-Jul-26 19:34N 58°18' W 134°24'0 0.0
2015-Jul-26 18:33N 58°18' W 134°24'0 0.0
2015-Jul-26 17:34N 58°18' W 134°24'0 0.0
2015-Jul-26 16:33N 58°18' W 134°24'0 0.0
2015-Jul-26 15:33N 58°18' W 134°24'0 0.0
2015-Jul-26 14:33N 58°18' W 134°24'0 0.0
2015-Jul-26 13:34N 58°18' W 134°24'0 0.0
2015-Jul-26 12:33N 58°18' W 134°24'0 0.0
2015-Jul-26 11:34N 58°18' W 134°24'0 0.0
2015-Jul-26 10:33N 58°18' W 134°24'0 0.0
2015-Jul-26 09:33N 58°18' W 134°24'0 0.0
2015-Jul-26 08:34N 58°18' W 134°24'0 0.0
2015-Jul-26 07:33N 58°18' W 134°24'0 0.0
2015-Jul-26 06:33N 58°18' W 134°24'0 0.0
2015-Jul-26 05:34N 58°18' W 134°24'0 0.0
2015-Jul-26 04:34N 58°18' W 134°24'0 0.0
2015-Jul-26 03:34N 58°18' W 134°24'0 0.0
2015-Jul-26 02:33N 58°18' W 134°24'0 0.0
2015-Jul-26 01:34N 58°18' W 134°24'0 0.0
2015-Jul-26 00:34N 58°18' W 134°24'0 0.2
2015-Jul-25 23:31N 58°17' W 134°24'0 0.0
2015-Jul-25 22:31N 58°17' W 134°24'0 0.0
2015-Jul-25 21:31N 58°17' W 134°24'0 0.2
2015-Jul-25 20:31N 58°18' W 134°24'0 0.0
2015-Jul-25 19:31N 58°18' W 134°24'0 0.0
2015-Jul-25 18:31N 58°18' W 134°24'0 0.0
2015-Jul-25 17:31N 58°18' W 134°24'2 2.3
2015-Jul-25 16:33N 58°16' W 134°21'1212.4
2015-Jul-25 15:33N 58°07' W 134°05'4 3.6
2015-Jul-25 14:31N 58°04' W 134°01'0 0.0
2015-Jul-25 13:31N 58°04' W 134°01'0 0.0
2015-Jul-25 12:31N 58°04' W 134°01'0 0.0
2015-Jul-25 11:31N 58°04' W 134°01'0 0.0
2015-Jul-25 10:31N 58°04' W 134°01'0 0.0
2015-Jul-25 09:31N 58°04' W 134°01'0 0.0
2015-Jul-25 08:31N 58°04' W 134°01'0 0.0
2015-Jul-25 07:31N 58°04' W 134°01'0 0.0
2015-Jul-25 06:31N 58°04' W 134°01'0 0.0
2015-Jul-25 05:31N 58°04' W 134°01'0 0.0
2015-Jul-25 04:31N 58°04' W 134°01'0 0.0
2015-Jul-25 03:31N 58°04' W 134°01'7 7.5
2015-Jul-25 02:33N 57°57' W 133°55'14 1.4
2015-Jul-24 16:29N 57°46' W 133°39'  
2015-Jul-18 22:11N 58°22' W 134°52'2213.3
2015-Jul-18 20:33N 58°12' W 134°15'7 7.3
2015-Jul-18 19:33N 58°18' W 134°25'0 0.0
2015-Jul-18 18:33N 58°18' W 134°25'0 0.0
2015-Jul-18 17:33N 58°18' W 134°25'0 0.0
2015-Jul-18 16:33N 58°18' W 134°25'1 0.5
2015-Jul-18 15:32N 58°18' W 134°24'0 0.0
2015-Jul-18 14:32N 58°18' W 134°24'0 0.0
2015-Jul-18 13:32N 58°18' W 134°24'0 0.0
2015-Jul-18 12:32N 58°18' W 134°24'0 0.0
2015-Jul-18 11:32N 58°18' W 134°24'0 0.0
2015-Jul-18 10:29N 58°18' W 134°24'0 0.0
2015-Jul-18 09:32N 58°18' W 134°24'0 0.0
2015-Jul-18 08:32N 58°18' W 134°24'0 0.0
2015-Jul-18 07:32N 58°18' W 134°24'0 0.0
2015-Jul-18 06:32N 58°18' W 134°24'0 0.0
2015-Jul-18 05:32N 58°18' W 134°24'0 0.0
2015-Jul-18 04:32N 58°18' W 134°24'0 0.0
2015-Jul-18 03:32N 58°18' W 134°24'0 0.0
2015-Jul-18 02:32N 58°18' W 134°24'0 0.0
2015-Jul-18 01:32N 58°18' W 134°24'0 0.0
2015-Jul-18 00:32N 58°18' W 134°24'0 0.0
2015-Jul-17 23:32N 58°18' W 134°24'0 0.0
2015-Jul-17 22:32N 58°18' W 134°24'0 0.0
2015-Jul-17 21:32N 58°18' W 134°24'0 0.0
2015-Jul-17 20:32N 58°18' W 134°24'  

Dump ship's entire track history